sensor_id;sensor_type;location;lat;lon;timestamp;temperature;humidity
18454;DHT22;9356;52.202;20.950;2023-03-29T01:24:09;-0.10;87.40
18454;DHT22;9356;52.202;20.950;2023-03-29T01:29:41;-0.20;87.80
18454;DHT22;9356;52.202;20.950;2023-03-29T01:34:23;-0.20;87.80
18454;DHT22;9356;52.202;20.950;2023-03-29T01:46:01;-0.80;88.90
18454;DHT22;9356;52.202;20.950;2023-03-29T01:47:17;-0.40;89.40
18454;DHT22;9356;52.202;20.950;2023-03-29T02:05:23;-0.30;90.40
18454;DHT22;9356;52.202;20.950;2023-03-29T02:13:12;-0.30;90.80
18454;DHT22;9356;52.202;20.950;2023-03-29T02:32:35;-0.30;91.80
18454;DHT22;9356;52.202;20.950;2023-03-29T02:33:47;-0.30;92.00
18454;DHT22;9356;52.202;20.950;2023-03-29T02:34:57;-0.20;92.10
18454;DHT22;9356;52.202;20.950;2023-03-29T02:36:06;-0.20;92.10
18454;DHT22;9356;52.202;20.950;2023-03-29T02:37:15;2.30;92.90
18454;DHT22;9356;52.202;20.950;2023-03-29T02:38:23;0.10;92.10
18454;DHT22;9356;52.202;20.950;2023-03-29T02:39:32;-0.30;92.10
18454;DHT22;9356;52.202;20.950;2023-03-29T02:40:38;-0.40;92.40
18454;DHT22;9356;52.202;20.950;2023-03-29T02:41:48;0.90;92.90
18454;DHT22;9356;52.202;20.950;2023-03-29T02:42:54;-0.30;92.50
18454;DHT22;9356;52.202;20.950;2023-03-29T02:44:01;1.30;93.10
18454;DHT22;9356;52.202;20.950;2023-03-29T02:45:08;0.10;92.50
18454;DHT22;9356;52.202;20.950;2023-03-29T02:46:14;-0.40;92.60
18454;DHT22;9356;52.202;20.950;2023-03-29T02:47:21;-3.60;91.50
18454;DHT22;9356;52.202;20.950;2023-03-29T02:48:31;-0.40;92.50
18454;DHT22;9356;52.202;20.950;2023-03-29T02:49:36;-0.40;92.70
18454;DHT22;9356;52.202;20.950;2023-03-29T02:50:43;-0.50;92.70
18454;DHT22;9356;52.202;20.950;2023-03-29T02:51:51;-0.60;93.40
18454;DHT22;9356;52.202;20.950;2023-03-29T02:53:00;-0.70;93.50
18454;DHT22;9356;52.202;20.950;2023-03-29T02:54:12;1.90;94.40
18454;DHT22;9356;52.202;20.950;2023-03-29T02:55:18;-0.60;94.00
18454;DHT22;9356;52.202;20.950;2023-03-29T02:56:23;-0.50;93.80
18454;DHT22;9356;52.202;20.950;2023-03-29T02:57:27;-0.50;93.80
18454;DHT22;9356;52.202;20.950;2023-03-29T02:58:29;-0.50;94.00
18454;DHT22;9356;52.202;20.950;2023-03-29T02:59:33;-0.50;94.00
18454;DHT22;9356;52.202;20.950;2023-03-29T03:00:41;-0.40;94.00
18454;DHT22;9356;52.202;20.950;2023-03-29T03:01:47;-0.50;93.70
18454;DHT22;9356;52.202;20.950;2023-03-29T03:02:50;-0.60;94.10
18454;DHT22;9356;52.202;20.950;2023-03-29T03:03:55;1.80;95.00
18454;DHT22;9356;52.202;20.950;2023-03-29T03:04:58;2.50;95.30
18454;DHT22;9356;52.202;20.950;2023-03-29T03:06:02;-0.60;94.20
18454;DHT22;9356;52.202;20.950;2023-03-29T03:07:06;-0.60;94.60
18454;DHT22;9356;52.202;20.950;2023-03-29T03:08:10;-0.50;94.50
18454;DHT22;9356;52.202;20.950;2023-03-29T03:09:13;0.10;94.70
18454;DHT22;9356;52.202;20.950;2023-03-29T03:10:48;-0.40;94.50
18454;DHT22;9356;52.202;20.950;2023-03-29T03:11:53;-0.40;94.40
18454;DHT22;9356;52.202;20.950;2023-03-29T03:12:59;-0.30;94.30
18454;DHT22;9356;52.202;20.950;2023-03-29T03:14:04;-0.30;94.10
18454;DHT22;9356;52.202;20.950;2023-03-29T03:15:09;-0.30;94.30
18454;DHT22;9356;52.202;20.950;2023-03-29T03:16:14;-0.30;94.30
18454;DHT22;9356;52.202;20.950;2023-03-29T03:17:17;0.30;94.90
18454;DHT22;9356;52.202;20.950;2023-03-29T03:18:22;-0.30;94.50
18454;DHT22;9356;52.202;20.950;2023-03-29T03:19:26;0.60;94.80
18454;DHT22;9356;52.202;20.950;2023-03-29T03:20:31;-3.50;93.60
18454;DHT22;9356;52.202;20.950;2023-03-29T03:21:35;-0.30;94.50
18454;DHT22;9356;52.202;20.950;2023-03-29T03:22:41;-0.40;94.20
18454;DHT22;9356;52.202;20.950;2023-03-29T03:23:44;-0.40;94.70
18454;DHT22;9356;52.202;20.950;2023-03-29T03:24:48;-0.40;94.90
18454;DHT22;9356;52.202;20.950;2023-03-29T03:25:52;-0.40;94.90
18454;DHT22;9356;52.202;20.950;2023-03-29T03:26:56;-0.40;94.80
18454;DHT22;9356;52.202;20.950;2023-03-29T03:27:59;-0.40;94.90
18454;DHT22;9356;52.202;20.950;2023-03-29T03:29:04;-0.40;95.10
18454;DHT22;9356;52.202;20.950;2023-03-29T03:30:29;-0.40;95.10
18454;DHT22;9356;52.202;20.950;2023-03-29T03:31:53;-0.40;95.20
18454;DHT22;9356;52.202;20.950;2023-03-29T03:33:16;-0.40;95.30
18454;DHT22;9356;52.202;20.950;2023-03-29T03:34:49;-0.30;95.40
18454;DHT22;9356;52.202;20.950;2023-03-29T03:35:52;-0.40;95.30
18454;DHT22;9356;52.202;20.950;2023-03-29T03:36:59;-0.30;95.50
18454;DHT22;9356;52.202;20.950;2023-03-29T03:38:07;-0.40;95.70
18454;DHT22;9356;52.202;20.950;2023-03-29T03:39:12;-0.40;95.50
18454;DHT22;9356;52.202;20.950;2023-03-29T03:40:22;-0.40;95.60
18454;DHT22;9356;52.202;20.950;2023-03-29T03:41:33;-1.00;95.60
18454;DHT22;9356;52.202;20.950;2023-03-29T03:42:37;-0.40;95.90
18454;DHT22;9356;52.202;20.950;2023-03-29T03:43:41;-0.50;95.90
18454;DHT22;9356;52.202;20.950;2023-03-29T03:44:48;-0.40;95.60
18454;DHT22;9356;52.202;20.950;2023-03-29T03:46:12;-0.50;95.90
18454;DHT22;9356;52.202;20.950;2023-03-29T03:47:17;-1.50;95.70
18454;DHT22;9356;52.202;20.950;2023-03-29T03:48:22;-0.60;95.90
18454;DHT22;9356;52.202;20.950;2023-03-29T03:49:53;-0.50;96.30
18454;DHT22;9356;52.202;20.950;2023-03-29T03:50:59;-0.10;96.60
18454;DHT22;9356;52.202;20.950;2023-03-29T03:52:07;-0.20;96.60
18454;DHT22;9356;52.202;20.950;2023-03-29T03:53:11;-0.50;96.50
18454;DHT22;9356;52.202;20.950;2023-03-29T03:54:33;-0.50;96.60
18454;DHT22;9356;52.202;20.950;2023-03-29T03:55:59;-0.30;96.70
18454;DHT22;9356;52.202;20.950;2023-03-29T03:57:09;-0.40;96.60
18454;DHT22;9356;52.202;20.950;2023-03-29T03:58:22;2.10;97.40
18454;DHT22;9356;52.202;20.950;2023-03-29T03:59:25;-0.40;96.70
18454;DHT22;9356;52.202;20.950;2023-03-29T04:00:40;-0.40;96.60
18454;DHT22;9356;52.202;20.950;2023-03-29T04:01:58;-0.40;96.30
18454;DHT22;9356;52.202;20.950;2023-03-29T04:03:03;0.20;96.60
18454;DHT22;9356;52.202;20.950;2023-03-29T04:04:09;-0.40;96.60
18454;DHT22;9356;52.202;20.950;2023-03-29T04:05:16;-0.50;96.60
18454;DHT22;9356;52.202;20.950;2023-03-29T04:06:18;-0.40;96.70
18454;DHT22;9356;52.202;20.950;2023-03-29T04:07:40;-0.40;96.80
18454;DHT22;9356;52.202;20.950;2023-03-29T04:09:13;-2.50;96.20
18454;DHT22;9356;52.202;20.950;2023-03-29T04:10:22;-0.60;96.90
18454;DHT22;9356;52.202;20.950;2023-03-29T04:11:55;-0.40;96.60
18454;DHT22;9356;52.202;20.950;2023-03-29T04:12:59;-0.40;96.70
18454;DHT22;9356;52.202;20.950;2023-03-29T04:14:04;-0.40;96.70
18454;DHT22;9356;52.202;20.950;2023-03-29T04:15:40;3.00;97.70
18454;DHT22;9356;52.202;20.950;2023-03-29T04:16:47;-0.50;96.80
18454;DHT22;9356;52.202;20.950;2023-03-29T04:18:09;-0.40;97.00
18454;DHT22;9356;52.202;20.950;2023-03-29T04:19:18;-0.50;97.10
18454;DHT22;9356;52.202;20.950;2023-03-29T04:20:23;-0.40;97.10
18454;DHT22;9356;52.202;20.950;2023-03-29T04:21:27;-0.50;97.10
18454;DHT22;9356;52.202;20.950;2023-03-29T04:22:30;-0.20;97.10
18454;DHT22;9356;52.202;20.950;2023-03-29T04:23:35;-2.20;96.70
18454;DHT22;9356;52.202;20.950;2023-03-29T04:24:37;-0.50;96.80
18454;DHT22;9356;52.202;20.950;2023-03-29T04:26:01;-0.50;97.10
18454;DHT22;9356;52.202;20.950;2023-03-29T04:27:23;-1.10;97.00
18454;DHT22;9356;52.202;20.950;2023-03-29T04:28:28;2.40;98.10
18454;DHT22;9356;52.202;20.950;2023-03-29T04:29:40;-0.40;97.20
18454;DHT22;9356;52.202;20.950;2023-03-29T04:30:57;-0.40;97.30
18454;DHT22;9356;52.202;20.950;2023-03-29T04:32:08;-0.40;97.20
18454;DHT22;9356;52.202;20.950;2023-03-29T04:33:29;-0.40;97.30
18454;DHT22;9356;52.202;20.950;2023-03-29T04:34:35;-0.30;97.40
18454;DHT22;9356;52.202;20.950;2023-03-29T04:35:41;-0.40;97.00
18454;DHT22;9356;52.202;20.950;2023-03-29T04:36:48;0.00;97.30
18454;DHT22;9356;52.202;20.950;2023-03-29T04:38:00;-0.30;97.00
18454;DHT22;9356;52.202;20.950;2023-03-29T04:39:06;-0.20;97.10
18454;DHT22;9356;52.202;20.950;2023-03-29T04:40:11;0.20;97.30
18454;DHT22;9356;52.202;20.950;2023-03-29T04:41:27;0.60;96.80
18454;DHT22;9356;52.202;20.950;2023-03-29T04:42:35;1.10;95.90
18454;DHT22;9356;52.202;20.950;2023-03-29T04:43:40;1.40;95.10
18454;DHT22;9356;52.202;20.950;2023-03-29T04:45:04;1.50;94.10
18454;DHT22;9356;52.202;20.950;2023-03-29T04:46:28;1.40;93.40
18454;DHT22;9356;52.202;20.950;2023-03-29T04:47:37;3.20;93.80
18454;DHT22;9356;52.202;20.950;2023-03-29T04:48:48;1.30;93.60
18454;DHT22;9356;52.202;20.950;2023-03-29T04:50:04;1.20;93.40
18454;DHT22;9356;52.202;20.950;2023-03-29T04:51:17;0.80;93.60
18454;DHT22;9356;52.202;20.950;2023-03-29T04:52:20;1.80;94.10
18454;DHT22;9356;52.202;20.950;2023-03-29T04:53:26;2.10;93.80
18454;DHT22;9356;52.202;20.950;2023-03-29T04:54:33;5.00;93.70
18454;DHT22;9356;52.202;20.950;2023-03-29T04:55:38;3.60;91.50
18454;DHT22;9356;52.202;20.950;2023-03-29T04:56:47;6.30;90.50
18454;DHT22;9356;52.202;20.950;2023-03-29T04:58:02;5.10;85.50
18454;DHT22;9356;52.202;20.950;2023-03-29T04:59:07;5.90;80.60
18454;DHT22;9356;52.202;20.950;2023-03-29T05:00:12;6.60;76.40
18454;DHT22;9356;52.202;20.950;2023-03-29T05:01:43;7.20;72.90
18454;DHT22;9356;52.202;20.950;2023-03-29T05:02:47;7.80;68.40
18454;DHT22;9356;52.202;20.950;2023-03-29T05:03:50;8.10;65.90
18454;DHT22;9356;52.202;20.950;2023-03-29T05:05:00;8.50;64.40
18454;DHT22;9356;52.202;20.950;2023-03-29T05:06:04;8.70;61.80
18454;DHT22;9356;52.202;20.950;2023-03-29T05:07:13;9.00;60.60
18454;DHT22;9356;52.202;20.950;2023-03-29T05:08:17;9.00;59.40
18454;DHT22;9356;52.202;20.950;2023-03-29T05:09:46;9.00;58.90
18454;DHT22;9356;52.202;20.950;2023-03-29T05:10:50;8.80;59.00
18454;DHT22;9356;52.202;20.950;2023-03-29T05:11:53;8.70;59.10
18454;DHT22;9356;52.202;20.950;2023-03-29T05:12:58;8.60;59.10
18454;DHT22;9356;52.202;20.950;2023-03-29T05:14:05;7.30;58.70
18454;DHT22;9356;52.202;20.950;2023-03-29T05:15:11;8.30;58.80
18454;DHT22;9356;52.202;20.950;2023-03-29T05:16:15;8.10;58.80
18454;DHT22;9356;52.202;20.950;2023-03-29T05:17:18;8.00;59.50
18454;DHT22;9356;52.202;20.950;2023-03-29T05:18:23;9.50;60.70
18454;DHT22;9356;52.202;20.950;2023-03-29T05:19:26;7.80;59.70
18454;DHT22;9356;52.202;20.950;2023-03-29T05:20:31;7.70;59.40
18454;DHT22;9356;52.202;20.950;2023-03-29T05:21:34;7.40;59.70
18454;DHT22;9356;52.202;20.950;2023-03-29T05:22:43;7.40;60.40
18454;DHT22;9356;52.202;20.950;2023-03-29T05:23:51;6.80;60.90
18454;DHT22;9356;52.202;20.950;2023-03-29T05:24:58;6.60;62.90
18454;DHT22;9356;52.202;20.950;2023-03-29T05:26:02;7.30;63.50
18454;DHT22;9356;52.202;20.950;2023-03-29T05:27:06;6.70;63.30
18454;DHT22;9356;52.202;20.950;2023-03-29T05:28:11;6.80;63.40
18454;DHT22;9356;52.202;20.950;2023-03-29T05:29:15;6.90;63.10
18454;DHT22;9356;52.202;20.950;2023-03-29T05:30:22;7.00;63.30
18454;DHT22;9356;52.202;20.950;2023-03-29T05:31:34;7.10;63.20
18454;DHT22;9356;52.202;20.950;2023-03-29T05:32:39;7.20;63.70
18454;DHT22;9356;52.202;20.950;2023-03-29T05:33:44;7.30;63.30
18454;DHT22;9356;52.202;20.950;2023-03-29T05:34:48;7.30;63.00
18454;DHT22;9356;52.202;20.950;2023-03-29T05:35:58;7.30;62.90
18454;DHT22;9356;52.202;20.950;2023-03-29T05:37:03;6.10;61.20
18454;DHT22;9356;52.202;20.950;2023-03-29T05:38:19;7.60;61.80
18454;DHT22;9356;52.202;20.950;2023-03-29T05:39:23;7.70;60.60
18454;DHT22;9356;52.202;20.950;2023-03-29T05:40:26;7.60;61.30
18454;DHT22;9356;52.202;20.950;2023-03-29T05:41:51;7.60;61.70
18454;DHT22;9356;52.202;20.950;2023-03-29T05:43:02;7.70;60.90
18454;DHT22;9356;52.202;20.950;2023-03-29T05:44:06;7.80;61.30
18454;DHT22;9356;52.202;20.950;2023-03-29T05:45:11;7.30;60.80
18454;DHT22;9356;52.202;20.950;2023-03-29T05:46:15;6.40;59.70
18454;DHT22;9356;52.202;20.950;2023-03-29T05:47:23;8.00;60.10
18454;DHT22;9356;52.202;20.950;2023-03-29T05:48:27;8.20;59.90
18454;DHT22;9356;52.202;20.950;2023-03-29T05:49:30;8.20;59.50
18454;DHT22;9356;52.202;20.950;2023-03-29T05:50:46;8.30;59.60
18454;DHT22;9356;52.202;20.950;2023-03-29T05:51:51;8.40;59.30
18454;DHT22;9356;52.202;20.950;2023-03-29T05:52:59;8.40;59.00
18454;DHT22;9356;52.202;20.950;2023-03-29T05:54:04;8.20;59.20
18454;DHT22;9356;52.202;20.950;2023-03-29T05:55:09;8.30;59.40
18454;DHT22;9356;52.202;20.950;2023-03-29T05:56:13;8.40;58.90
18454;DHT22;9356;52.202;20.950;2023-03-29T05:57:18;8.50;58.90
18454;DHT22;9356;52.202;20.950;2023-03-29T05:58:22;8.50;58.70
18454;DHT22;9356;52.202;20.950;2023-03-29T05:59:27;8.60;58.60
18454;DHT22;9356;52.202;20.950;2023-03-29T06:00:31;8.70;58.50
18454;DHT22;9356;52.202;20.950;2023-03-29T06:01:54;8.80;58.40
18454;DHT22;9356;52.202;20.950;2023-03-29T06:02:58;6.50;62.90
18454;DHT22;9356;52.202;20.950;2023-03-29T06:04:20;9.10;59.40
18454;DHT22;9356;52.202;20.950;2023-03-29T06:05:44;9.20;57.90
18454;DHT22;9356;52.202;20.950;2023-03-29T06:06:52;9.30;57.50
18454;DHT22;9356;52.202;20.950;2023-03-29T06:07:56;9.30;57.10
18454;DHT22;9356;52.202;20.950;2023-03-29T06:09:16;9.30;57.20
18454;DHT22;9356;52.202;20.950;2023-03-29T06:10:29;9.40;57.10
18454;DHT22;9356;52.202;20.950;2023-03-29T06:11:47;9.40;56.90
18454;DHT22;9356;52.202;20.950;2023-03-29T06:12:58;11.70;57.90
18454;DHT22;9356;52.202;20.950;2023-03-29T06:14:02;9.50;56.70
18454;DHT22;9356;52.202;20.950;2023-03-29T06:15:07;9.50;56.80
18454;DHT22;9356;52.202;20.950;2023-03-29T06:16:18;9.50;56.30
18454;DHT22;9356;52.202;20.950;2023-03-29T06:17:22;9.50;56.30
18454;DHT22;9356;52.202;20.950;2023-03-29T06:18:25;9.20;55.80
18454;DHT22;9356;52.202;20.950;2023-03-29T06:19:29;9.40;56.00
18454;DHT22;9356;52.202;20.950;2023-03-29T06:20:32;12.60;58.30
18454;DHT22;9356;52.202;20.950;2023-03-29T06:21:41;9.30;56.80
18454;DHT22;9356;52.202;20.950;2023-03-29T06:22:48;9.40;56.80
18454;DHT22;9356;52.202;20.950;2023-03-29T06:23:51;9.50;56.00
18454;DHT22;9356;52.202;20.950;2023-03-29T06:24:58;9.60;56.30
18454;DHT22;9356;52.202;20.950;2023-03-29T06:26:07;9.60;56.20
18454;DHT22;9356;52.202;20.950;2023-03-29T06:27:12;9.70;56.40
18454;DHT22;9356;52.202;20.950;2023-03-29T06:28:18;9.80;56.10
18454;DHT22;9356;52.202;20.950;2023-03-29T06:29:22;9.90;56.20
18454;DHT22;9356;52.202;20.950;2023-03-29T06:30:26;9.90;55.80
18454;DHT22;9356;52.202;20.950;2023-03-29T06:31:30;10.00;55.60
18454;DHT22;9356;52.202;20.950;2023-03-29T06:32:42;10.70;55.80
18454;DHT22;9356;52.202;20.950;2023-03-29T06:34:09;10.20;55.40
18454;DHT22;9356;52.202;20.950;2023-03-29T06:35:34;10.20;55.40
18454;DHT22;9356;52.202;20.950;2023-03-29T06:36:42;7.50;53.80
18454;DHT22;9356;52.202;20.950;2023-03-29T06:37:47;10.50;54.60
18454;DHT22;9356;52.202;20.950;2023-03-29T06:38:58;10.40;54.90
18454;DHT22;9356;52.202;20.950;2023-03-29T06:40:22;10.20;54.60
18454;DHT22;9356;52.202;20.950;2023-03-29T06:41:26;10.30;55.00
18454;DHT22;9356;52.202;20.950;2023-03-29T06:42:50;10.40;55.00
18454;DHT22;9356;52.202;20.950;2023-03-29T06:44:18;10.50;54.80
18454;DHT22;9356;52.202;20.950;2023-03-29T06:45:35;10.60;54.70
18454;DHT22;9356;52.202;20.950;2023-03-29T06:46:47;7.70;53.20
18454;DHT22;9356;52.202;20.950;2023-03-29T06:47:50;10.70;54.50
18454;DHT22;9356;52.202;20.950;2023-03-29T06:48:54;10.90;54.20
18454;DHT22;9356;52.202;20.950;2023-03-29T06:50:00;11.20;53.80
18454;DHT22;9356;52.202;20.950;2023-03-29T06:51:16;8.00;52.10
18454;DHT22;9356;52.202;20.950;2023-03-29T06:52:24;11.20;53.30
18454;DHT22;9356;52.202;20.950;2023-03-29T06:53:27;11.20;52.70
18454;DHT22;9356;52.202;20.950;2023-03-29T06:54:36;11.30;52.90
18454;DHT22;9356;52.202;20.950;2023-03-29T06:55:42;11.40;53.00
18454;DHT22;9356;52.202;20.950;2023-03-29T06:57:09;11.40;53.00
18454;DHT22;9356;52.202;20.950;2023-03-29T06:58:15;11.50;52.30
18454;DHT22;9356;52.202;20.950;2023-03-29T06:59:21;11.40;52.80
18454;DHT22;9356;52.202;20.950;2023-03-29T07:00:29;11.30;52.10
18454;DHT22;9356;52.202;20.950;2023-03-29T07:01:51;11.30;52.40
18454;DHT22;9356;52.202;20.950;2023-03-29T07:03:34;11.30;52.50
18454;DHT22;9356;52.202;20.950;2023-03-29T07:04:38;13.40;53.30
18454;DHT22;9356;52.202;20.950;2023-03-29T07:05:52;12.40;52.60
18454;DHT22;9356;52.202;20.950;2023-03-29T07:07:02;11.40;52.40
18454;DHT22;9356;52.202;20.950;2023-03-29T07:08:10;11.30;52.20
18454;DHT22;9356;52.202;20.950;2023-03-29T07:09:39;13.80;53.70
18454;DHT22;9356;52.202;20.950;2023-03-29T07:11:05;11.40;52.80
18454;DHT22;9356;52.202;20.950;2023-03-29T07:12:24;11.50;52.10
18454;DHT22;9356;52.202;20.950;2023-03-29T07:13:33;11.30;53.20
18454;DHT22;9356;52.202;20.950;2023-03-29T07:14:40;11.30;53.00
18454;DHT22;9356;52.202;20.950;2023-03-29T07:15:43;9.40;52.10
18454;DHT22;9356;52.202;20.950;2023-03-29T07:16:57;11.50;52.80
18454;DHT22;9356;52.202;20.950;2023-03-29T07:18:07;11.60;51.80
18454;DHT22;9356;52.202;20.950;2023-03-29T07:19:11;11.60;52.70
18454;DHT22;9356;52.202;20.950;2023-03-29T07:20:35;11.70;52.10
18454;DHT22;9356;52.202;20.950;2023-03-29T07:21:41;11.50;51.60
18454;DHT22;9356;52.202;20.950;2023-03-29T07:22:45;11.90;51.30
18454;DHT22;9356;52.202;20.950;2023-03-29T07:23:49;12.00;51.40
18454;DHT22;9356;52.202;20.950;2023-03-29T07:24:53;11.90;51.10
18454;DHT22;9356;52.202;20.950;2023-03-29T07:25:57;11.80;51.20
18454;DHT22;9356;52.202;20.950;2023-03-29T07:27:03;12.00;51.20
18454;DHT22;9356;52.202;20.950;2023-03-29T07:28:09;11.90;50.80
18454;DHT22;9356;52.202;20.950;2023-03-29T07:29:14;11.90;51.30
18454;DHT22;9356;52.202;20.950;2023-03-29T07:30:20;11.10;51.00
18454;DHT22;9356;52.202;20.950;2023-03-29T07:31:25;12.00;51.20
18454;DHT22;9356;52.202;20.950;2023-03-29T07:32:43;12.10;50.90
18454;DHT22;9356;52.202;20.950;2023-03-29T07:34:01;12.10;50.40
18454;DHT22;9356;52.202;20.950;2023-03-29T07:35:08;12.20;64.40
18454;DHT22;9356;52.202;20.950;2023-03-29T07:36:13;12.30;59.20
18454;DHT22;9356;52.202;20.950;2023-03-29T07:37:16;12.30;57.10
18454;DHT22;9356;52.202;20.950;2023-03-29T07:38:20;12.40;54.20
18454;DHT22;9356;52.202;20.950;2023-03-29T07:39:36;11.10;59.60
18454;DHT22;9356;52.202;20.950;2023-03-29T07:41:09;12.70;57.20
18454;DHT22;9356;52.202;20.950;2023-03-29T07:42:22;12.90;51.70
18454;DHT22;9356;52.202;20.950;2023-03-29T07:43:25;9.40;49.00
18454;DHT22;9356;52.202;20.950;2023-03-29T07:44:29;13.00;50.00
18454;DHT22;9356;52.202;20.950;2023-03-29T07:45:32;10.70;48.20
18454;DHT22;9356;52.202;20.950;2023-03-29T07:46:43;13.00;48.80
18454;DHT22;9356;52.202;20.950;2023-03-29T07:47:47;13.00;49.20
18454;DHT22;9356;52.202;20.950;2023-03-29T07:48:51;12.90;49.50
18454;DHT22;9356;52.202;20.950;2023-03-29T07:50:01;12.80;49.40
18454;DHT22;9356;52.202;20.950;2023-03-29T07:51:06;12.80;48.80
18454;DHT22;9356;52.202;20.950;2023-03-29T07:52:17;11.40;48.70
18454;DHT22;9356;52.202;20.950;2023-03-29T07:53:21;9.40;47.50
18454;DHT22;9356;52.202;20.950;2023-03-29T07:54:29;12.50;49.10
18454;DHT22;9356;52.202;20.950;2023-03-29T07:55:50;12.40;49.70
18454;DHT22;9356;52.202;20.950;2023-03-29T07:57:15;12.40;49.70
18454;DHT22;9356;52.202;20.950;2023-03-29T07:58:27;12.50;49.50
18454;DHT22;9356;52.202;20.950;2023-03-29T07:59:31;12.60;49.50
18454;DHT22;9356;52.202;20.950;2023-03-29T08:00:42;12.70;58.50
18454;DHT22;9356;52.202;20.950;2023-03-29T08:02:09;10.00;49.90
18454;DHT22;9356;52.202;20.950;2023-03-29T08:03:18;12.60;49.10
18454;DHT22;9356;52.202;20.950;2023-03-29T08:04:22;12.50;48.90
18454;DHT22;9356;52.202;20.950;2023-03-29T08:06:00;12.50;48.90
18454;DHT22;9356;52.202;20.950;2023-03-29T08:07:04;12.50;49.50
18454;DHT22;9356;52.202;20.950;2023-03-29T08:08:27;12.70;48.50
18454;DHT22;9356;52.202;20.950;2023-03-29T08:09:36;13.20;48.80
18454;DHT22;9356;52.202;20.950;2023-03-29T08:10:39;12.70;48.70
18454;DHT22;9356;52.202;20.950;2023-03-29T08:12:02;12.80;48.40
18454;DHT22;9356;52.202;20.950;2023-03-29T08:13:10;12.70;47.60
18454;DHT22;9356;52.202;20.950;2023-03-29T08:14:42;12.80;48.10
18454;DHT22;9356;52.202;20.950;2023-03-29T08:16:07;12.80;48.40
18454;DHT22;9356;52.202;20.950;2023-03-29T08:17:17;12.80;48.80
18454;DHT22;9356;52.202;20.950;2023-03-29T08:18:23;13.00;48.40
18454;DHT22;9356;52.202;20.950;2023-03-29T08:19:27;13.50;48.50
18454;DHT22;9356;52.202;20.950;2023-03-29T08:20:40;13.00;47.10
18454;DHT22;9356;52.202;20.950;2023-03-29T08:21:43;13.00;47.80
18454;DHT22;9356;52.202;20.950;2023-03-29T08:26:06;12.60;47.30
18454;DHT22;9356;52.202;20.950;2023-03-29T08:31:26;12.20;49.00
18454;DHT22;9356;52.202;20.950;2023-03-29T08:33:07;11.00;52.30
18454;DHT22;9356;52.202;20.950;2023-03-29T09:38:58;11.00;33.10
18454;DHT22;9356;52.202;20.950;2023-03-29T09:40:55;10.90;34.10
18454;DHT22;9356;52.202;20.950;2023-03-29T10:03:05;11.10;48.10
18454;DHT22;9356;52.202;20.950;2023-03-29T10:32:37;10.90;35.20
18454;DHT22;9356;52.202;20.950;2023-03-29T10:41:51;11.00;36.40
18454;DHT22;9356;52.202;20.950;2023-03-29T10:50:48;10.40;38.00
18454;DHT22;9356;52.202;20.950;2023-03-29T10:56:37;10.00;38.80
18454;DHT22;9356;52.202;20.950;2023-03-29T11:03:23;10.70;39.10
18454;DHT22;9356;52.202;20.950;2023-03-29T11:20:56;10.10;37.70
18454;DHT22;9356;52.202;20.950;2023-03-29T11:22:43;10.10;37.60
18454;DHT22;9356;52.202;20.950;2023-03-29T11:31:01;10.10;36.80
18454;DHT22;9356;52.202;20.950;2023-03-29T12:04:29;11.20;35.00
18454;DHT22;9356;52.202;20.950;2023-03-29T12:19:02;11.60;34.00
18454;DHT22;9356;52.202;20.950;2023-03-29T14:42:23;11.90;32.30
18454;DHT22;9356;52.202;20.950;2023-03-29T14:50:46;11.90;33.00
18454;DHT22;9356;52.202;20.950;2023-03-29T14:55:53;11.80;33.00
18454;DHT22;9356;52.202;20.950;2023-03-29T15:11:22;12.10;33.50
18454;DHT22;9356;52.202;20.950;2023-03-29T15:20:16;14.90;36.00
18454;DHT22;9356;52.202;20.950;2023-03-29T15:25:19;11.20;34.60
18454;DHT22;9356;52.202;20.950;2023-03-29T15:33:33;10.90;35.00
18454;DHT22;9356;52.202;20.950;2023-03-29T15:35:24;12.10;35.90
18454;DHT22;9356;52.202;20.950;2023-03-29T15:36:40;10.70;35.30
18454;DHT22;9356;52.202;20.950;2023-03-29T16:18:00;12.30;37.60
18454;DHT22;9356;52.202;20.950;2023-03-29T16:27:00;9.60;37.50
18454;DHT22;9356;52.202;20.950;2023-03-29T16:59:07;12.40;44.30
18454;DHT22;9356;52.202;20.950;2023-03-29T17:07:54;9.00;44.20
18454;DHT22;9356;52.202;20.950;2023-03-29T17:32:26;8.80;42.60
18454;DHT22;9356;52.202;20.950;2023-03-29T17:51:14;8.60;43.50
18454;DHT22;9356;52.202;20.950;2023-03-29T18:02:52;8.40;44.10
18454;DHT22;9356;52.202;20.950;2023-03-29T19:48:01;7.40;47.80
18454;DHT22;9356;52.202;20.950;2023-03-29T20:39:59;6.60;50.00
18454;DHT22;9356;52.202;20.950;2023-03-29T20:42:26;6.60;50.50
18454;DHT22;9356;52.202;20.950;2023-03-29T20:44:07;6.60;50.50
18454;DHT22;9356;52.202;20.950;2023-03-29T20:45:43;6.60;50.10
18454;DHT22;9356;52.202;20.950;2023-03-29T20:47:20;6.50;50.00
18454;DHT22;9356;52.202;20.950;2023-03-29T20:49:07;6.60;50.00
18454;DHT22;9356;52.202;20.950;2023-03-29T21:01:05;6.40;50.40
18454;DHT22;9356;52.202;20.950;2023-03-29T21:03:25;6.40;50.40
18454;DHT22;9356;52.202;20.950;2023-03-29T21:05:16;6.30;50.60
18454;DHT22;9356;52.202;20.950;2023-03-29T21:14:19;6.20;51.10
18454;DHT22;9356;52.202;20.950;2023-03-29T21:19:54;4.00;50.10
18454;DHT22;9356;52.202;20.950;2023-03-29T21:41:47;7.20;52.40
18454;DHT22;9356;52.202;20.950;2023-03-29T21:54:21;5.80;51.60
